FDX9436 LFPG-EGBB
Flight info
| Callsign | FDX9436 |
|---|---|
| Flight time | 0h 57m |
| Altitude | 26000 |
| Route | OPALE DCT KESAX DCT DIMAL DCT ALESO T420 HEMEL |
| Aircraft | MD11/H-SDE1E2E3FGHIJ2J3J4J5M1RWXY/LB1D1 |
Departure
| Time | 2026-05-09 10:49 |
|---|---|
| Airport | Charles de Gaulle International Airport (LFPG) |
Arrival
| Time | 2026-05-09 11:47 |
|---|---|
| Airport | Birmingham Airport (EGBB) |
| Time | Latitude | Longitude | Altitude | Speed | Heading |
|---|---|---|---|---|---|
| 2026-05-09 10:43 | 49.01600 | 2.50202 | 368 ft | 3 kts | 87° |
| 2026-05-09 10:43 | 49.01601 | 2.50234 | 368 ft | 3 kts | 87° |
| 2026-05-09 10:43 | 49.01604 | 2.50314 | 367 ft | 14 kts | 86° |
| 2026-05-09 10:44 | 49.01614 | 2.50517 | 368 ft | 21 kts | 85° |
| 2026-05-09 10:44 | 49.01626 | 2.50732 | 362 ft | 19 kts | 85° |
| 2026-05-09 10:44 | 49.01637 | 2.50927 | 364 ft | 18 kts | 85° |
| 2026-05-09 10:44 | 49.01646 | 2.51103 | 367 ft | 16 kts | 85° |
| 2026-05-09 10:45 | 49.01675 | 2.51243 | 369 ft | 12 kts | 41° |
| 2026-05-09 10:46 | 49.01885 | 2.51252 | 364 ft | 0 kts | 354° |
| 2026-05-09 10:47 | 49.01902 | 2.51250 | 364 ft | 9 kts | 357° |
| 2026-05-09 10:47 | 49.02000 | 2.51294 | 370 ft | 17 kts | 37° |
| 2026-05-09 10:48 | 49.02063 | 2.51420 | 367 ft | 14 kts | 76° |
| 2026-05-09 10:48 | 49.02068 | 2.51465 | 366 ft | 0 kts | 82° |
| 2026-05-09 10:49 | 49.02071 | 2.51489 | 363 ft | 14 kts | 82° |
| 2026-05-09 10:49 | 49.02107 | 2.52110 | 366 ft | 108 kts | 85° |
| 2026-05-09 10:49 | 49.02188 | 2.53681 | 427 ft | 179 kts | 85° |
| 2026-05-09 10:49 | 49.02275 | 2.55684 | 1244 ft | 198 kts | 86° |
| 2026-05-09 10:50 | 49.02393 | 2.57858 | 2290 ft | 208 kts | 85° |
| 2026-05-09 10:50 | 49.02501 | 2.59785 | 4151 ft | 177 kts | 88° |
| 2026-05-09 10:50 | 49.02614 | 2.61860 | 4755 ft | 221 kts | 86° |
| 2026-05-09 10:50 | 49.02750 | 2.64413 | 4994 ft | 257 kts | 86° |
| 2026-05-09 10:51 | 49.02898 | 2.67158 | 6064 ft | 261 kts | 87° |
| 2026-05-09 10:51 | 49.03047 | 2.69921 | 7180 ft | 268 kts | 87° |
| 2026-05-09 10:51 | 49.03371 | 2.72774 | 8211 ft | 279 kts | 73° |
| 2026-05-09 10:51 | 49.04339 | 2.75376 | 9241 ft | 289 kts | 47° |
| 2026-05-09 10:52 | 49.06027 | 2.77053 | 10234 ft | 297 kts | 18° |
| 2026-05-09 10:52 | 49.08169 | 2.77456 | 10471 ft | 330 kts | 351° |
| 2026-05-09 10:52 | 49.10437 | 2.76317 | 10710 ft | 357 kts | 329° |
| 2026-05-09 10:52 | 49.12531 | 2.74209 | 11614 ft | 363 kts | 322° |
| 2026-05-09 10:53 | 49.14582 | 2.71890 | 12622 ft | 370 kts | 321° |
| 2026-05-09 10:53 | 49.16682 | 2.69544 | 13577 ft | 377 kts | 322° |
| 2026-05-09 10:53 | 49.18850 | 2.67214 | 14458 ft | 383 kts | 323° |
| 2026-05-09 10:53 | 49.21068 | 2.64912 | 15342 ft | 388 kts | 324° |
| 2026-05-09 10:54 | 49.23302 | 2.62564 | 16187 ft | 393 kts | 323° |
| 2026-05-09 10:54 | 49.25469 | 2.60213 | 16977 ft | 397 kts | 322° |
| 2026-05-09 10:54 | 49.26030 | 2.59599 | 17193 ft | 398 kts | 322° |
| 2026-05-09 10:54 | 49.28295 | 2.57108 | 18017 ft | 403 kts | 322° |
| 2026-05-09 10:55 | 49.30584 | 2.54587 | 18718 ft | 408 kts | 322° |
| 2026-05-09 10:55 | 49.32906 | 2.52033 | 19404 ft | 413 kts | 322° |
| 2026-05-09 10:55 | 49.35256 | 2.49449 | 20050 ft | 417 kts | 322° |
| 2026-05-09 10:55 | 49.37630 | 2.46840 | 20671 ft | 422 kts | 322° |
| 2026-05-09 10:56 | 49.40026 | 2.44206 | 21310 ft | 426 kts | 322° |
| 2026-05-09 10:56 | 49.42452 | 2.41537 | 21985 ft | 430 kts | 322° |
| 2026-05-09 10:56 | 49.44894 | 2.38847 | 22650 ft | 434 kts | 322° |
| 2026-05-09 10:56 | 49.47362 | 2.36125 | 23326 ft | 439 kts | 322° |
| 2026-05-09 10:57 | 49.49855 | 2.33371 | 23949 ft | 443 kts | 322° |
| 2026-05-09 10:57 | 49.52391 | 2.30565 | 24339 ft | 454 kts | 322° |
| 2026-05-09 10:57 | 49.54943 | 2.27739 | 24773 ft | 461 kts | 322° |
| 2026-05-09 10:57 | 49.57552 | 2.24847 | 25132 ft | 463 kts | 322° |
| 2026-05-09 10:58 | 49.60170 | 2.21942 | 25519 ft | 464 kts | 322° |
| 2026-05-09 10:58 | 49.62792 | 2.19029 | 25871 ft | 466 kts | 322° |
| 2026-05-09 10:58 | 49.65441 | 2.16081 | 26004 ft | 468 kts | 322° |
| 2026-05-09 10:58 | 49.68023 | 2.13218 | 26027 ft | 443 kts | 322° |
| 2026-05-09 10:59 | 49.70483 | 2.10494 | 26029 ft | 430 kts | 322° |
| 2026-05-09 10:59 | 49.72901 | 2.07803 | 26035 ft | 427 kts | 322° |
| 2026-05-09 10:59 | 49.75315 | 2.05101 | 26034 ft | 429 kts | 322° |
| 2026-05-09 10:59 | 49.77704 | 2.02417 | 26035 ft | 430 kts | 322° |
| 2026-05-09 11:00 | 49.80125 | 1.99694 | 26032 ft | 430 kts | 322° |
| 2026-05-09 11:00 | 49.82545 | 1.96967 | 26033 ft | 430 kts | 322° |
| 2026-05-09 11:00 | 49.84967 | 1.94234 | 26032 ft | 430 kts | 322° |
| 2026-05-09 11:00 | 49.87385 | 1.91503 | 26035 ft | 430 kts | 322° |
| 2026-05-09 11:01 | 49.89806 | 1.88731 | 26030 ft | 430 kts | 320° |
| 2026-05-09 11:01 | 49.92164 | 1.85891 | 26033 ft | 430 kts | 319° |
| 2026-05-09 11:01 | 49.94508 | 1.82992 | 26033 ft | 429 kts | 319° |
| 2026-05-09 11:01 | 49.96842 | 1.80082 | 26048 ft | 430 kts | 319° |
| 2026-05-09 11:02 | 49.99150 | 1.77205 | 26040 ft | 431 kts | 319° |
| 2026-05-09 11:02 | 50.01488 | 1.74294 | 26047 ft | 431 kts | 319° |
| 2026-05-09 11:02 | 50.03830 | 1.71384 | 26043 ft | 431 kts | 319° |
| 2026-05-09 11:02 | 50.06198 | 1.68526 | 26030 ft | 432 kts | 323° |
| 2026-05-09 11:03 | 50.08777 | 1.66093 | 26048 ft | 433 kts | 330° |
| 2026-05-09 11:03 | 50.11475 | 1.64001 | 26033 ft | 434 kts | 333° |
| 2026-05-09 11:03 | 50.14225 | 1.62042 | 26045 ft | 434 kts | 334° |
| 2026-05-09 11:03 | 50.16985 | 1.60116 | 26054 ft | 434 kts | 334° |
| 2026-05-09 11:04 | 50.19744 | 1.58175 | 26057 ft | 434 kts | 334° |
| 2026-05-09 11:04 | 50.22506 | 1.56203 | 26045 ft | 436 kts | 334° |
| 2026-05-09 11:04 | 50.25223 | 1.54240 | 26048 ft | 436 kts | 334° |
| 2026-05-09 11:04 | 50.27980 | 1.52232 | 26051 ft | 436 kts | 334° |
| 2026-05-09 11:05 | 50.30728 | 1.50220 | 26061 ft | 436 kts | 334° |
| 2026-05-09 11:05 | 50.33473 | 1.48204 | 26076 ft | 436 kts | 334° |
| 2026-05-09 11:05 | 50.36217 | 1.46186 | 26063 ft | 436 kts | 334° |
| 2026-05-09 11:05 | 50.38963 | 1.44164 | 26063 ft | 436 kts | 333° |
| 2026-05-09 11:06 | 50.41706 | 1.42141 | 26065 ft | 436 kts | 334° |
| 2026-05-09 11:06 | 50.44451 | 1.40114 | 26068 ft | 436 kts | 334° |
| 2026-05-09 11:06 | 50.47200 | 1.38079 | 26081 ft | 436 kts | 333° |
| 2026-05-09 11:06 | 50.49785 | 1.35647 | 26070 ft | 432 kts | 320° |
| 2026-05-09 11:07 | 50.52021 | 1.32514 | 26074 ft | 430 kts | 312° |
| 2026-05-09 11:07 | 50.54070 | 1.29068 | 26075 ft | 429 kts | 309° |
| 2026-05-09 11:07 | 50.56034 | 1.25560 | 26075 ft | 429 kts | 308° |
| 2026-05-09 11:07 | 50.58000 | 1.22097 | 26076 ft | 429 kts | 310° |
| 2026-05-09 11:08 | 50.60049 | 1.18671 | 26078 ft | 430 kts | 311° |
| 2026-05-09 11:08 | 50.62137 | 1.15297 | 26077 ft | 430 kts | 312° |
| 2026-05-09 11:08 | 50.64240 | 1.11958 | 26080 ft | 430 kts | 312° |
| 2026-05-09 11:08 | 50.66356 | 1.08620 | 26089 ft | 431 kts | 312° |
| 2026-05-09 11:09 | 50.68471 | 1.05283 | 26092 ft | 431 kts | 312° |
| 2026-05-09 11:09 | 50.70597 | 1.01925 | 26097 ft | 431 kts | 312° |
| 2026-05-09 11:09 | 50.72714 | 0.98574 | 26099 ft | 431 kts | 312° |
| 2026-05-09 11:09 | 50.74833 | 0.95212 | 26099 ft | 431 kts | 312° |
| 2026-05-09 11:10 | 50.76947 | 0.91853 | 26105 ft | 431 kts | 312° |
| 2026-05-09 11:10 | 50.79055 | 0.88497 | 26101 ft | 428 kts | 312° |
| 2026-05-09 11:10 | 50.81152 | 0.85154 | 26100 ft | 428 kts | 312° |
| 2026-05-09 11:10 | 50.83246 | 0.81809 | 26100 ft | 428 kts | 312° |
| 2026-05-09 11:11 | 50.85342 | 0.78454 | 26098 ft | 428 kts | 311° |
| 2026-05-09 11:11 | 50.87427 | 0.75099 | 26091 ft | 428 kts | 311° |
| 2026-05-09 11:11 | 50.89514 | 0.71733 | 26119 ft | 429 kts | 311° |
| 2026-05-09 11:11 | 50.91606 | 0.68360 | 26142 ft | 429 kts | 311° |
| 2026-05-09 11:12 | 50.93673 | 0.65029 | 26164 ft | 429 kts | 311° |
| 2026-05-09 11:12 | 50.95770 | 0.61648 | 26187 ft | 429 kts | 311° |
| 2026-05-09 11:12 | 50.97863 | 0.58268 | 26213 ft | 429 kts | 311° |
| 2026-05-09 11:12 | 50.99955 | 0.54883 | 26233 ft | 429 kts | 311° |
| 2026-05-09 11:13 | 51.02050 | 0.51491 | 26256 ft | 429 kts | 311° |
| 2026-05-09 11:13 | 51.04141 | 0.48102 | 26278 ft | 429 kts | 311° |
| 2026-05-09 11:13 | 51.06234 | 0.44721 | 26302 ft | 428 kts | 312° |
| 2026-05-09 11:13 | 51.08354 | 0.41395 | 26315 ft | 427 kts | 313° |
| 2026-05-09 11:14 | 51.10499 | 0.38097 | 26319 ft | 427 kts | 313° |
| 2026-05-09 11:14 | 51.12642 | 0.34826 | 26319 ft | 427 kts | 313° |
| 2026-05-09 11:14 | 51.14758 | 0.31600 | 26319 ft | 427 kts | 313° |
| 2026-05-09 11:14 | 51.16895 | 0.28336 | 26320 ft | 427 kts | 313° |
| 2026-05-09 11:15 | 51.19041 | 0.25051 | 26303 ft | 426 kts | 313° |
| 2026-05-09 11:15 | 51.21175 | 0.21777 | 26284 ft | 426 kts | 313° |
| 2026-05-09 11:15 | 51.23311 | 0.18494 | 26262 ft | 426 kts | 313° |
| 2026-05-09 11:15 | 51.25445 | 0.15208 | 26239 ft | 426 kts | 313° |
| 2026-05-09 11:16 | 51.27578 | 0.11918 | 26218 ft | 426 kts | 313° |
| 2026-05-09 11:16 | 51.29714 | 0.08618 | 26197 ft | 426 kts | 313° |
| 2026-05-09 11:16 | 51.31851 | 0.05347 | 26171 ft | 427 kts | 316° |
| 2026-05-09 11:16 | 51.34200 | 0.02410 | 26127 ft | 429 kts | 323° |
| 2026-05-09 11:17 | 51.36718 | -0.00176 | 26116 ft | 431 kts | 327° |
| 2026-05-09 11:17 | 51.39302 | -0.02608 | 26123 ft | 430 kts | 328° |
| 2026-05-09 11:17 | 51.41893 | -0.04986 | 26117 ft | 429 kts | 328° |
| 2026-05-09 11:17 | 51.44452 | -0.07345 | 26115 ft | 428 kts | 328° |
| 2026-05-09 11:18 | 51.47031 | -0.09749 | 26119 ft | 428 kts | 328° |
| 2026-05-09 11:18 | 51.49598 | -0.12168 | 26120 ft | 428 kts | 328° |
| 2026-05-09 11:18 | 51.52161 | -0.14602 | 26122 ft | 428 kts | 327° |
| 2026-05-09 11:18 | 51.54720 | -0.17045 | 26124 ft | 428 kts | 327° |
| 2026-05-09 11:19 | 51.57275 | -0.19491 | 26124 ft | 428 kts | 327° |
| 2026-05-09 11:19 | 51.59867 | -0.21981 | 26016 ft | 445 kts | 327° |
| 2026-05-09 11:19 | 51.62552 | -0.24564 | 25675 ft | 452 kts | 327° |
| 2026-05-09 11:19 | 51.65256 | -0.27166 | 25114 ft | 453 kts | 327° |
| 2026-05-09 11:20 | 51.67962 | -0.29776 | 24444 ft | 452 kts | 327° |
| 2026-05-09 11:20 | 51.70655 | -0.32378 | 23794 ft | 451 kts | 327° |
| 2026-05-09 11:20 | 51.73342 | -0.34973 | 23287 ft | 449 kts | 327° |
| 2026-05-09 11:20 | 51.75114 | -0.36685 | 23003 ft | 448 kts | 327° |
| 2026-05-09 11:21 | 51.77780 | -0.39262 | 22548 ft | 444 kts | 327° |
| 2026-05-09 11:21 | 51.80417 | -0.41814 | 22219 ft | 440 kts | 327° |
| 2026-05-09 11:21 | 51.83033 | -0.44352 | 22165 ft | 438 kts | 327° |
| 2026-05-09 11:21 | 51.85647 | -0.46891 | 22143 ft | 437 kts | 327° |
| 2026-05-09 11:22 | 51.88251 | -0.49423 | 22135 ft | 437 kts | 327° |
| 2026-05-09 11:22 | 51.90869 | -0.51970 | 22131 ft | 437 kts | 327° |
| 2026-05-09 11:22 | 51.93470 | -0.54504 | 22124 ft | 437 kts | 327° |
| 2026-05-09 11:22 | 51.96075 | -0.57052 | 22094 ft | 437 kts | 327° |
| 2026-05-09 11:23 | 51.98675 | -0.59601 | 22023 ft | 437 kts | 327° |
| 2026-05-09 11:23 | 52.01273 | -0.62151 | 21977 ft | 436 kts | 327° |
| 2026-05-09 11:23 | 52.03874 | -0.64705 | 21896 ft | 435 kts | 327° |
| 2026-05-09 11:23 | 52.06426 | -0.67215 | 21829 ft | 434 kts | 327° |
| 2026-05-09 11:24 | 52.09011 | -0.69758 | 21763 ft | 433 kts | 327° |
| 2026-05-09 11:24 | 52.11591 | -0.72301 | 21422 ft | 432 kts | 327° |
| 2026-05-09 11:24 | 52.14150 | -0.74825 | 20848 ft | 428 kts | 327° |
| 2026-05-09 11:24 | 52.16681 | -0.77324 | 20248 ft | 423 kts | 327° |
| 2026-05-09 11:25 | 52.19179 | -0.79796 | 19636 ft | 417 kts | 327° |
| 2026-05-09 11:25 | 52.21604 | -0.82329 | 19032 ft | 411 kts | 322° |
| 2026-05-09 11:25 | 52.23707 | -0.85344 | 18447 ft | 403 kts | 310° |
| 2026-05-09 11:25 | 52.25247 | -0.89079 | 17795 ft | 395 kts | 294° |
| 2026-05-09 11:26 | 52.26151 | -0.93279 | 17201 ft | 389 kts | 283° |
| 2026-05-09 11:26 | 52.26741 | -0.97575 | 16650 ft | 386 kts | 280° |
| 2026-05-09 11:26 | 52.27241 | -1.01864 | 16071 ft | 382 kts | 280° |
| 2026-05-09 11:26 | 52.27737 | -1.06115 | 15512 ft | 380 kts | 280° |
| 2026-05-09 11:27 | 52.28252 | -1.10324 | 15033 ft | 377 kts | 281° |
| 2026-05-09 11:27 | 52.28780 | -1.14457 | 14741 ft | 360 kts | 281° |
| 2026-05-09 11:27 | 52.29293 | -1.18355 | 14615 ft | 340 kts | 282° |
| 2026-05-09 11:27 | 52.29777 | -1.21984 | 14506 ft | 322 kts | 282° |
| 2026-05-09 11:28 | 52.30245 | -1.25464 | 14396 ft | 305 kts | 282° |
| 2026-05-09 11:28 | 52.30695 | -1.28818 | 14283 ft | 300 kts | 282° |
| 2026-05-09 11:28 | 52.31142 | -1.32145 | 14065 ft | 299 kts | 282° |
| 2026-05-09 11:28 | 52.31582 | -1.35461 | 13607 ft | 299 kts | 282° |
| 2026-05-09 11:29 | 52.32017 | -1.38757 | 13016 ft | 295 kts | 281° |
| 2026-05-09 11:29 | 52.32448 | -1.42024 | 12479 ft | 293 kts | 282° |
| 2026-05-09 11:29 | 52.32878 | -1.45276 | 11943 ft | 292 kts | 282° |
| 2026-05-09 11:29 | 52.33306 | -1.48513 | 11439 ft | 290 kts | 281° |
| 2026-05-09 11:30 | 52.33732 | -1.51733 | 10917 ft | 289 kts | 282° |
| 2026-05-09 11:30 | 52.34156 | -1.54943 | 10439 ft | 287 kts | 282° |
| 2026-05-09 11:30 | 52.34576 | -1.58117 | 10079 ft | 283 kts | 282° |
| 2026-05-09 11:30 | 52.34984 | -1.61214 | 9689 ft | 282 kts | 282° |
| 2026-05-09 11:31 | 52.35394 | -1.64341 | 9296 ft | 280 kts | 280° |
| 2026-05-09 11:31 | 52.35563 | -1.67493 | 9177 ft | 278 kts | 269° |
| 2026-05-09 11:31 | 52.35507 | -1.70618 | 9156 ft | 268 kts | 266° |
| 2026-05-09 11:31 | 52.35406 | -1.73561 | 9141 ft | 251 kts | 266° |
| 2026-05-09 11:32 | 52.35302 | -1.76351 | 9131 ft | 242 kts | 265° |
| 2026-05-09 11:32 | 52.35199 | -1.79083 | 9129 ft | 240 kts | 266° |
| 2026-05-09 11:32 | 52.35095 | -1.81804 | 9130 ft | 239 kts | 266° |
| 2026-05-09 11:32 | 52.34993 | -1.84517 | 9155 ft | 239 kts | 266° |
| 2026-05-09 11:33 | 52.34890 | -1.87237 | 9153 ft | 240 kts | 265° |
| 2026-05-09 11:33 | 52.34787 | -1.89956 | 9140 ft | 240 kts | 266° |
| 2026-05-09 11:33 | 52.34579 | -1.95407 | 9131 ft | 240 kts | 266° |
| 2026-05-09 11:34 | 52.34475 | -1.98129 | 9145 ft | 240 kts | 265° |
| 2026-05-09 11:34 | 52.34369 | -2.00858 | 9147 ft | 240 kts | 266° |
| 2026-05-09 11:34 | 52.34264 | -2.03579 | 9137 ft | 240 kts | 266° |
| 2026-05-09 11:34 | 52.34224 | -2.06313 | 9133 ft | 240 kts | 274° |
| 2026-05-09 11:35 | 52.34702 | -2.08858 | 9053 ft | 239 kts | 303° |
| 2026-05-09 11:35 | 52.35882 | -2.10728 | 8995 ft | 238 kts | 327° |
| 2026-05-09 11:35 | 52.37308 | -2.12144 | 8957 ft | 239 kts | 330° |
| 2026-05-09 11:35 | 52.38750 | -2.13502 | 8886 ft | 239 kts | 334° |
| 2026-05-09 11:36 | 52.40344 | -2.14168 | 8810 ft | 237 kts | 356° |
| 2026-05-09 11:36 | 52.41998 | -2.14242 | 8751 ft | 238 kts | 0° |
| 2026-05-09 11:36 | 52.43653 | -2.14264 | 8688 ft | 237 kts | 0° |
| 2026-05-09 11:36 | 52.45307 | -2.14287 | 8624 ft | 237 kts | 0° |
| 2026-05-09 11:37 | 52.46960 | -2.14317 | 8541 ft | 238 kts | 360° |
| 2026-05-09 11:37 | 52.48597 | -2.14350 | 8239 ft | 237 kts | 0° |
| 2026-05-09 11:37 | 52.50239 | -2.14385 | 7880 ft | 235 kts | 0° |
| 2026-05-09 11:37 | 52.51880 | -2.14425 | 7519 ft | 235 kts | 0° |
| 2026-05-09 11:38 | 52.53516 | -2.14464 | 7169 ft | 235 kts | 360° |
| 2026-05-09 11:38 | 52.55144 | -2.14504 | 6853 ft | 234 kts | 360° |
| 2026-05-09 11:38 | 52.56764 | -2.14543 | 6459 ft | 230 kts | 0° |
| 2026-05-09 11:38 | 52.58344 | -2.14591 | 6035 ft | 224 kts | 0° |
| 2026-05-09 11:39 | 52.59892 | -2.14652 | 5617 ft | 221 kts | 360° |
| 2026-05-09 11:39 | 52.61380 | -2.14380 | 5194 ft | 218 kts | 23° |
| 2026-05-09 11:39 | 52.62559 | -2.12904 | 4768 ft | 209 kts | 58° |
| 2026-05-09 11:40 | 52.63797 | -2.08653 | 3982 ft | 206 kts | 68° |
| 2026-05-09 11:40 | 52.64368 | -2.06493 | 3596 ft | 203 kts | 68° |
| 2026-05-09 11:40 | 52.64914 | -2.04407 | 3212 ft | 195 kts | 68° |
| 2026-05-09 11:40 | 52.65419 | -2.02362 | 2834 ft | 190 kts | 74° |
| 2026-05-09 11:41 | 52.65380 | -2.00238 | 2483 ft | 187 kts | 111° |
| 2026-05-09 11:41 | 52.64530 | -1.98628 | 2479 ft | 188 kts | 145° |
| 2026-05-09 11:41 | 52.63440 | -1.97486 | 2459 ft | 183 kts | 145° |
| 2026-05-09 11:41 | 52.62394 | -1.96285 | 2460 ft | 183 kts | 142° |
| 2026-05-09 11:42 | 52.61393 | -1.94995 | 2452 ft | 183 kts | 139° |
| 2026-05-09 11:42 | 52.60442 | -1.93656 | 2459 ft | 181 kts | 137° |
| 2026-05-09 11:42 | 52.59511 | -1.92255 | 2456 ft | 181 kts | 135° |
| 2026-05-09 11:42 | 52.58606 | -1.90818 | 2453 ft | 181 kts | 134° |
| 2026-05-09 11:43 | 52.57717 | -1.89348 | 2459 ft | 182 kts | 133° |
| 2026-05-09 11:43 | 52.56841 | -1.87859 | 2463 ft | 179 kts | 134° |
| 2026-05-09 11:43 | 52.55929 | -1.86606 | 2461 ft | 159 kts | 141° |
| 2026-05-09 11:43 | 52.55044 | -1.85578 | 2457 ft | 154 kts | 143° |
| 2026-05-09 11:44 | 52.54167 | -1.84598 | 2247 ft | 149 kts | 143° |
| 2026-05-09 11:44 | 52.53312 | -1.83639 | 2047 ft | 149 kts | 144° |
| 2026-05-09 11:44 | 52.52459 | -1.82684 | 1831 ft | 149 kts | 144° |
| 2026-05-09 11:44 | 52.51600 | -1.81721 | 1639 ft | 150 kts | 142° |
| 2026-05-09 11:45 | 52.50733 | -1.80760 | 1392 ft | 150 kts | 144° |
| 2026-05-09 11:45 | 52.49865 | -1.79824 | 1133 ft | 149 kts | 143° |
| 2026-05-09 11:45 | 52.49015 | -1.78872 | 966 ft | 147 kts | 146° |
| 2026-05-09 11:45 | 52.48172 | -1.77917 | 752 ft | 148 kts | 143° |
| 2026-05-09 11:46 | 52.47324 | -1.76975 | 576 ft | 147 kts | 145° |
| 2026-05-09 11:46 | 52.46496 | -1.76045 | 369 ft | 144 kts | 144° |
| 2026-05-09 11:46 | 52.45714 | -1.75166 | 329 ft | 121 kts | 145° |
| 2026-05-09 11:46 | 52.45086 | -1.74469 | 333 ft | 92 kts | 146° |
| 2026-05-09 11:47 | 52.44751 | -1.74096 | 334 ft | 26 kts | 146° |
| 2026-05-09 11:47 | 52.44666 | -1.73989 | 336 ft | 12 kts | 125° |
| 2026-05-09 11:47 | 52.44671 | -1.73898 | 339 ft | 7 kts | 69° |
| 2026-05-09 11:47 | 52.44693 | -1.73839 | 353 ft | 5 kts | 54° |
| 2026-05-09 11:48 | 52.44724 | -1.73771 | 352 ft | 9 kts | 49° |
| 2026-05-09 11:48 | 52.44775 | -1.73714 | 353 ft | 9 kts | 25° |
| 2026-05-09 11:48 | 52.44831 | -1.73688 | 344 ft | 8 kts | 4° |
| 2026-05-09 11:48 | 52.44882 | -1.73718 | 336 ft | 10 kts | 329° |
| 2026-05-09 11:49 | 52.44960 | -1.73801 | 337 ft | 14 kts | 326° |
| 2026-05-09 11:49 | 52.44999 | -1.73901 | 336 ft | 9 kts | 267° |
| 2026-05-09 11:49 | 52.44985 | -1.74003 | 337 ft | 9 kts | 256° |
| 2026-05-09 11:49 | 52.44966 | -1.74123 | 336 ft | 14 kts | 255° |
| 2026-05-09 11:50 | 52.44948 | -1.74288 | 336 ft | 15 kts | 270° |
| 2026-05-09 11:50 | 52.44964 | -1.74450 | 335 ft | 13 kts | 281° |
| 2026-05-09 11:50 | 52.44981 | -1.74594 | 333 ft | 12 kts | 281° |
| 2026-05-09 11:50 | 52.45007 | -1.74719 | 335 ft | 11 kts | 305° |
| 2026-05-09 11:51 | 52.45066 | -1.74795 | 331 ft | 11 kts | 324° |
| 2026-05-09 11:51 | 52.45127 | -1.74865 | 332 ft | 11 kts | 327° |
| 2026-05-09 11:51 | 52.45175 | -1.74933 | 331 ft | 8 kts | 297° |
| 2026-05-09 11:51 | 52.45170 | -1.75004 | 332 ft | 6 kts | 248° |
| 2026-05-09 11:52 | 52.45153 | -1.75060 | 332 ft | 5 kts | 242° |
| 2026-05-09 11:52 | 52.45136 | -1.75105 | 331 ft | 4 kts | 236° |
| 2026-05-09 11:52 | 52.45119 | -1.75140 | 335 ft | 3 kts | 227° |
| 2026-05-09 11:52 | 52.45103 | -1.75156 | 331 ft | 4 kts | 205° |
| 2026-05-09 11:53 | 52.45080 | -1.75163 | 332 ft | 3 kts | 188° |
| 2026-05-09 11:53 | 52.45061 | -1.75168 | 331 ft | 4 kts | 188° |
| 2026-05-09 11:53 | 52.45054 | -1.75169 | 335 ft | 0 kts | 188° |